LGIR/HER METAR and TAF weather

Enter ICAO airport designator
Station Type Date Time Source
LGIR METAR 2022/01/26 20:50 UTC NOAA

LGIR 262050Z 32011KT 9999 -RA FEW012 FEW016TCU BKN025 07/03 Q1022 NOSIG


Station Type Date Time Source
LGIR Decoded METAR 2022/01/26 20:50 UTC NOAA

Heraklion Airport , Greece (LGIR) 35-20N 025-11E 39M
Jan 26, 2022 - 03:50 PM EST / 2022.01.26 2050 UTC
Wind: from the NW (320 degrees) at 13 MPH (11 KT):0
Visibility: greater than 7 mile(s):0
Sky conditions: mostly cloudy
Weather: light rain; Towering cumulus clouds observed
Temperature: 44 F (7 C)
Dew Point: 37 F (3 C)
Relative Humidity: 75%
Pressure (altimeter): 30.18 in. Hg (1022 hPa)
ob: LGIR 262050Z 32011KT 9999 -RA FEW012 FEW016TCU BKN025 07/03 Q1022 NOSIG
cycle: 21

Station Type Date Time Source
LGIR TAF 2022/01/26 18:13 UTC NOAA

TAF LGIR 261700Z 2618/2718 34015G25KT 9999 FEW012 FEW016TCU BKN025 BKN080 PROB30
TEMPO 2706/2712 RA SCT010 BKN020 BKN080
BECMG 2705/2707 32010KT

Example: see airport list